Flag for USA

Past Weather in Puyallup, Washington, USA — Yesterday and Last 2 Weeks

Currently: 50 °F. Low clouds. (Weather station: Thun Field, USA). See more current weather

Past Weather in Puyallup — Graph

°F

Puyallup Temperature Yesterday

Maximum temperature yesterday: 57 °F (at 1:35 pm)
Minimum temperature yesterday: 34 °F (at 1:15 am)
Average temperature yesterday: 43 °F

High & Low Weather Summary for the Past Weeks

 TemperatureHumidityPressure
High59 °F (Jan 1, 12:35 pm)100% (Dec 31, 11:35 am)30.52 "Hg (Dec 31, 11:35 am)
Low28 °F (Jan 9, 3:55 am)44% (Jan 14, 12:55 pm)29.47 "Hg (Jan 4, 8:35 am)
Average45 °F94%30.04 "Hg
* Reported Dec 31 10:35 am — Jan 15 10:35 am, Puyallup. Weather by CustomWeather, © 2021

Note: Actual official high and low records may vary slightly from our data, if they occured in-between our weather recording intervals... More about our weather records

Puyallup Weather History for the Previous 24 Hours

Scroll right to see more
 ConditionsComfort  
Time TempWeatherWind HumidityBarometerVisibility
10:35 am
Fri, Jan 15
50 °FLow clouds.No wind100%30.42 "Hg9 mi
9:55 am50 °FMore clouds than sun.No wind100%30.41 "Hg10 mi
9:35 am50 °FOvercast.No wind100%30.41 "Hg10 mi
8:55 am48 °FLow clouds.No wind100%30.40 "Hg10 mi
8:35 am48 °FLow clouds.No wind100%30.40 "Hg10 mi
8:15 am48 °FMostly cloudy.No wind100%30.40 "Hg10 mi
7:55 am48 °FMostly cloudy.No wind100%30.40 "Hg10 mi
7:35 am48 °FMostly cloudy.No wind100%30.39 "Hg10 mi
7:15 am48 °FDrizzle. Mostly cloudy.No wind100%30.39 "Hg7 mi
6:55 am48 °FDrizzle. Mostly cloudy.3 mph100%30.39 "Hg4 mi
6:35 am48 °FDrizzle. Overcast.No wind100%30.38 "Hg10 mi
6:15 am48 °FOvercast.No wind100%30.37 "Hg10 mi
5:55 am48 °FOvercast.No wind100%30.36 "Hg10 mi
5:35 am48 °FOvercast.No wind100%30.35 "Hg10 mi
5:15 am48 °FOvercast.No wind100%30.33 "Hg9 mi
4:55 am46 °FOvercast.No wind100%30.33 "Hg8 mi
3:15 am46 °FDrizzle. Mostly cloudy.No wind100%30.33 "Hg2 mi
2:55 am45 °FDrizzle. Mostly cloudy.No wind100%30.33 "Hg2 mi
2:35 am45 °FDrizzle. Mostly cloudy.No wind100%30.33 "Hg2 mi
2:15 am45 °FLight rain. Partly cloudy.No wind100%30.33 "Hg2 mi
1:55 am45 °FDrizzle. Overcast.No wind100%30.31 "Hg5 mi
1:35 am45 °FDrizzle. Mostly cloudy.No wind100%30.31 "Hg8 mi
12:55 am45 °FFog.No wind100%30.31 "Hg6 mi
12:35 am45 °FOvercast.No wind100%30.31 "Hg10 mi
12:15 am45 °FDrizzle. Overcast.No wind100%30.32 "Hg4 mi
11:55 pm
Thu, Jan 14
45 °FOvercast.No wind100%30.33 "Hg9 mi
11:35 pm45 °FDrizzle. Mostly cloudy.No wind100%30.32 "Hg4 mi
11:15 pm45 °FOvercast.No wind93%30.34 "Hg9 mi
10:35 pm46 °FMostly cloudy.No wind87%30.32 "Hg10 mi
10:15 pm46 °FMostly cloudy.No wind82%30.31 "Hg10 mi
9:55 pm46 °FMostly cloudy.No wind87%30.31 "Hg10 mi
9:35 pm45 °FOvercast.No wind93%30.30 "Hg10 mi
9:15 pm45 °FOvercast.No wind93%30.29 "Hg10 mi
8:55 pm43 °FMostly cloudy.No wind93%30.28 "Hg10 mi
8:35 pm43 °FPassing clouds.No wind93%30.29 "Hg10 mi
8:15 pm45 °FPassing clouds.No wind87%30.28 "Hg10 mi
7:55 pm45 °FMostly cloudy.No wind93%30.31 "Hg10 mi
7:15 pm45 °FMostly cloudy.No wind93%30.31 "Hg10 mi
6:55 pm43 °FMostly cloudy.No wind93%30.32 "Hg10 mi
6:35 pm41 °FPartly cloudy.No wind100%30.31 "Hg10 mi
6:15 pm41 °FPassing clouds.No wind93%30.31 "Hg10 mi
5:55 pm41 °FQuite cool.No wind100%30.30 "HgN/A
5:35 pm43 °FPassing clouds.No wind93%30.30 "Hg10 mi
5:15 pm43 °FClear.No wind93%30.30 "Hg10 mi
4:55 pm45 °FClear.No wind87%30.30 "Hg10 mi
4:15 pm50 °FPassing clouds.No wind71%30.32 "Hg10 mi
3:55 pm52 °FScattered clouds.No wind67%30.34 "Hg10 mi
3:35 pm52 °FOvercast.No wind62%30.34 "Hg10 mi
3:15 pm54 °FPartly sunny.No wind58%30.35 "Hg10 mi
2:55 pm54 °FPassing clouds.No wind58%30.35 "Hg10 mi
2:35 pm54 °FSunny.No wind63%30.35 "Hg10 mi
2:15 pm55 °FSunny.No wind59%30.34 "Hg10 mi
1:55 pm55 °FSunny.No wind59%30.33 "Hg10 mi
1:35 pm57 °FSunny.No wind51%30.33 "Hg10 mi
1:15 pm55 °FSunny.No wind44%30.34 "Hg10 mi
12:55 pm55 °FPassing clouds.No wind44%30.35 "Hg10 mi
12:35 pm54 °FScattered clouds.No wind58%30.35 "Hg10 mi
12:15 pm52 °FPassing clouds.No wind62%30.36 "Hg10 mi
11:55 am50 °FSunny.No wind67%30.37 "Hg10 mi
11:35 am48 °FSunny.No wind71%30.38 "Hg10 mi
11:15 am48 °FScattered clouds.No wind71%30.40 "Hg10 mi
Weather by CustomWeather, © 2021

See weather overview